createdAt,value
2022-08-30T00:03:59.709Z,17.10
2022-08-30T00:12:00.714Z,17.06
2022-08-30T00:14:54.329Z,17.10
2022-08-30T00:21:15.401Z,17.10
2022-08-30T00:23:49.514Z,17.00
2022-08-30T00:26:33.517Z,16.80
2022-08-30T00:29:10.934Z,16.70
2022-08-30T00:31:46.242Z,16.50
2022-08-30T00:34:20.587Z,16.40
2022-08-30T00:36:56.242Z,16.40
2022-08-30T00:50:15.053Z,16.68
2022-08-30T00:53:23.275Z,16.70
2022-08-30T00:56:06.227Z,16.70
2022-08-30T00:58:46.949Z,16.70
2022-08-30T01:01:21.468Z,16.68
2022-08-30T01:03:58.537Z,16.70
2022-08-30T01:06:33.050Z,16.76
2022-08-30T01:09:15.188Z,16.80
2022-08-30T01:11:50.200Z,16.80
2022-08-30T01:14:25.823Z,16.88
2022-08-30T01:17:01.591Z,16.90
2022-08-30T01:19:46.909Z,16.80
2022-08-30T01:22:33.958Z,16.80
2022-08-30T01:25:12.513Z,16.80
2022-08-30T01:27:53.935Z,16.82
2022-08-30T01:30:31.857Z,16.86
2022-08-30T01:33:09.752Z,16.90
2022-08-30T01:35:56.725Z,16.90
2022-08-30T01:38:37.168Z,16.80
2022-08-30T01:41:20.768Z,16.80
2022-08-30T01:47:37.748Z,16.80
2022-08-30T01:50:14.248Z,16.70
2022-08-30T01:52:48.019Z,16.70
2022-08-30T01:55:23.522Z,16.70
2022-08-30T01:57:58.428Z,16.70
2022-08-30T02:03:43.016Z,16.70
2022-08-30T02:06:20.169Z,16.70
2022-08-30T02:08:54.069Z,16.60
2022-08-30T02:11:27.714Z,16.60
2022-08-30T02:14:01.389Z,16.60
2022-08-30T02:16:35.364Z,16.60
2022-08-30T02:19:13.615Z,16.60
2022-08-30T02:21:48.772Z,16.62
2022-08-30T02:24:22.481Z,16.60
2022-08-30T02:26:56.147Z,16.60
2022-08-30T02:30:10.712Z,16.60
2022-08-30T02:32:46.549Z,16.70
2022-08-30T02:35:19.849Z,16.70
2022-08-30T02:37:53.265Z,16.80
2022-08-30T02:40:26.776Z,16.80
2022-08-30T02:43:00.113Z,16.90
2022-08-30T02:45:33.378Z,16.90
2022-08-30T02:48:07.130Z,16.90
2022-08-30T02:50:44.810Z,16.90
2022-08-30T02:53:18.284Z,16.94
2022-08-30T02:55:52.448Z,17.00
2022-08-30T02:58:25.709Z,17.10
2022-08-30T03:00:59.068Z,17.10
2022-08-30T03:03:32.465Z,17.20
2022-08-30T03:06:06.060Z,17.20
2022-08-30T03:08:39.708Z,17.20
2022-08-30T03:11:14.142Z,17.20
2022-08-30T03:13:47.637Z,17.20
2022-08-30T03:16:22.446Z,17.30
2022-08-30T03:18:55.923Z,17.30
2022-08-30T03:21:29.195Z,17.30
2022-08-30T03:24:02.490Z,17.36
2022-08-30T03:26:35.848Z,17.40
2022-08-30T03:29:10.395Z,17.50
2022-08-30T03:31:53.018Z,17.52
2022-08-30T03:34:28.660Z,17.50
2022-08-30T03:37:02.659Z,17.50
2022-08-30T03:39:35.953Z,17.50
2022-08-30T03:42:11.369Z,17.50
2022-08-30T03:44:44.760Z,17.50
2022-08-30T03:47:18.185Z,17.50
2022-08-30T03:49:51.432Z,17.50
2022-08-30T03:52:24.685Z,17.40
2022-08-30T03:54:57.915Z,17.40
2022-08-30T03:57:31.381Z,17.30
2022-08-30T04:00:06.106Z,17.30
2022-08-30T04:02:45.514Z,17.28
2022-08-30T04:05:18.910Z,17.20
2022-08-30T04:07:52.231Z,17.20
2022-08-30T04:10:26.535Z,17.18
2022-08-30T04:12:59.748Z,17.10
2022-08-30T04:15:32.996Z,17.10
2022-08-30T04:18:06.405Z,17.10
2022-08-30T04:20:40.238Z,17.16
2022-08-30T04:23:28.877Z,17.20
2022-08-30T04:26:02.321Z,17.20
2022-08-30T04:28:36.093Z,17.20
2022-08-30T04:31:15.555Z,17.20
2022-08-30T04:33:49.672Z,17.30
2022-08-30T04:36:23.211Z,17.40
2022-08-30T04:38:56.817Z,17.42
2022-08-30T04:41:30.245Z,17.50
2022-08-30T04:44:04.800Z,17.50
2022-08-30T04:46:44.685Z,17.50
2022-08-30T04:49:18.530Z,17.50
2022-08-30T04:51:52.498Z,17.60
2022-08-30T04:54:26.261Z,17.60
2022-08-30T04:57:00.927Z,17.68
2022-08-30T04:59:34.398Z,17.70
2022-08-30T05:02:09.581Z,17.70
2022-08-30T05:05:04.497Z,17.80
2022-08-30T05:07:37.109Z,17.88
2022-08-30T05:10:13.748Z,17.98
2022-08-30T05:12:47.726Z,17.94
2022-08-30T05:15:22.400Z,17.92
2022-08-30T05:17:55.713Z,17.96
2022-08-30T05:20:29.341Z,18.00
2022-08-30T05:23:02.849Z,18.14
2022-08-30T05:25:42.223Z,18.28
2022-08-30T05:28:15.762Z,18.30
2022-08-30T05:30:49.406Z,18.30
2022-08-30T05:33:22.887Z,18.40
2022-08-30T05:35:58.291Z,18.40
2022-08-30T05:38:31.751Z,18.50
2022-08-30T05:41:10.568Z,18.50
2022-08-30T05:43:44.935Z,18.60
2022-08-30T05:46:19.922Z,18.60
2022-08-30T05:48:54.384Z,18.70
2022-08-30T05:51:31.181Z,18.80
2022-08-30T05:54:06.195Z,18.90
2022-08-30T05:56:42.380Z,18.90
2022-08-30T05:59:17.437Z,19.00
2022-08-30T06:01:51.333Z,19.10
2022-08-30T06:04:25.128Z,19.14
2022-08-30T06:06:58.489Z,19.26
2022-08-30T06:09:32.060Z,19.40
2022-08-30T06:12:05.954Z,19.46
2022-08-30T06:14:39.503Z,19.50
2022-08-30T06:17:12.835Z,19.56
2022-08-30T06:19:46.102Z,19.60
2022-08-30T06:22:19.386Z,19.70
2022-08-30T06:24:59.871Z,19.86
2022-08-30T06:27:33.156Z,20.00
2022-08-30T06:30:08.671Z,20.10
2022-08-30T06:32:42.411Z,20.20
2022-08-30T06:35:16.232Z,20.30
2022-08-30T06:37:49.476Z,20.42
2022-08-30T06:40:23.350Z,20.60
2022-08-30T06:42:56.871Z,20.76
2022-08-30T06:45:34.223Z,20.80
2022-08-30T06:48:08.608Z,20.90
2022-08-30T06:50:42.862Z,20.90
2022-08-30T06:53:16.491Z,21.00
2022-08-30T06:56:00.829Z,21.14
2022-08-30T06:58:35.946Z,21.26
2022-08-30T07:01:13.048Z,21.30
2022-08-30T07:03:46.684Z,21.30
2022-08-30T07:06:21.177Z,21.30
2022-08-30T07:08:56.027Z,21.34
2022-08-30T07:11:38.999Z,21.50
2022-08-30T07:14:12.511Z,21.60
2022-08-30T07:16:46.408Z,21.66
2022-08-30T07:19:25.094Z,21.70
2022-08-30T07:21:58.438Z,21.80
2022-08-30T07:24:31.710Z,21.90
2022-08-30T07:27:05.242Z,21.94
2022-08-30T07:29:38.425Z,22.00
2022-08-30T07:32:12.272Z,21.90
2022-08-30T07:34:48.012Z,21.90
2022-08-30T07:37:24.966Z,21.92
2022-08-30T07:39:58.628Z,22.00
2022-08-30T07:42:31.995Z,22.08
2022-08-30T07:45:05.849Z,22.10
2022-08-30T07:47:39.619Z,22.18
2022-08-30T07:50:13.419Z,22.20
2022-08-30T07:52:46.689Z,22.30
2022-08-30T07:55:20.497Z,22.40
2022-08-30T07:57:53.797Z,22.40
2022-08-30T08:00:27.184Z,22.48
2022-08-30T08:03:05.267Z,22.60
2022-08-30T08:05:44.416Z,22.70
2022-08-30T08:08:19.154Z,22.80
2022-08-30T08:10:52.647Z,22.90
2022-08-30T08:13:28.008Z,23.06
2022-08-30T08:16:04.151Z,23.20
2022-08-30T08:18:37.577Z,23.30
2022-08-30T08:21:11.642Z,23.46
2022-08-30T08:23:44.953Z,23.60
2022-08-30T08:26:18.360Z,23.78
2022-08-30T08:28:52.134Z,23.90
2022-08-30T08:31:33.612Z,24.00
2022-08-30T08:34:09.129Z,24.24
2022-08-30T08:36:44.710Z,24.58
2022-08-30T08:39:18.422Z,24.90
2022-08-30T08:42:08.580Z,25.10
2022-08-30T09:07:49.559Z,25.30
2022-08-30T09:10:40.483Z,25.80
2022-08-30T09:13:19.105Z,25.90
2022-08-30T09:15:59.578Z,25.90
2022-08-30T09:18:54.690Z,25.78
2022-08-30T09:21:29.717Z,25.58
2022-08-30T09:24:08.910Z,25.40
2022-08-30T09:26:42.557Z,25.30
2022-08-30T09:29:23.130Z,25.30
2022-08-30T09:32:22.587Z,25.40
2022-08-30T09:34:52.273Z,25.40
2022-08-30T09:37:48.117Z,25.40
2022-08-30T09:40:33.370Z,25.38
2022-08-30T09:43:12.153Z,25.34
2022-08-30T09:45:49.991Z,25.40
2022-08-30T09:48:38.077Z,25.40
2022-08-30T09:51:40.194Z,25.30
2022-08-30T09:54:26.319Z,25.40
2022-08-30T09:57:16.080Z,25.70
2022-08-30T09:59:59.164Z,26.00
2022-08-30T10:02:59.805Z,26.22
2022-08-30T10:05:44.732Z,26.40
2022-08-30T10:08:31.022Z,26.50
2022-08-30T10:11:10.262Z,26.40
2022-08-30T10:14:05.786Z,26.40
2022-08-30T10:16:54.366Z,26.40
2022-08-30T10:19:57.771Z,26.40
2022-08-30T10:25:41.751Z,26.38
2022-08-30T10:28:23.679Z,26.50
2022-08-30T10:38:19.629Z,26.74
2022-08-30T11:27:57.942Z,28.10
2022-08-30T11:31:10.153Z,28.20
2022-08-30T11:33:51.570Z,28.18
2022-08-30T11:37:09.747Z,28.10
2022-08-30T11:40:05.700Z,28.30
2022-08-30T11:42:48.002Z,28.58
2022-08-30T11:45:55.731Z,28.60
2022-08-30T11:48:55.934Z,28.40
2022-08-30T11:55:37.991Z,27.70
2022-08-30T11:58:34.535Z,27.36
2022-08-30T12:01:49.793Z,27.00
2022-08-30T12:04:47.619Z,26.70
2022-08-30T12:08:03.183Z,26.50
2022-08-30T12:10:45.930Z,26.40
2022-08-30T12:13:57.215Z,26.20
2022-08-30T12:17:00.324Z,26.20
2022-08-30T12:19:36.271Z,26.52
2022-08-30T12:22:21.391Z,27.10
2022-08-30T12:24:57.589Z,27.32
2022-08-30T12:27:34.680Z,29.26
2022-08-30T12:30:14.060Z,32.36
2022-08-30T12:32:53.177Z,34.94
2022-08-30T12:35:31.354Z,37.04
2022-08-30T12:38:13.866Z,38.64
2022-08-30T12:40:58.284Z,39.40
2022-08-30T12:43:39.081Z,38.54
2022-08-30T12:46:20.860Z,40.28
2022-08-30T12:48:55.371Z,41.92
2022-08-30T12:51:45.241Z,43.32
2022-08-30T12:54:28.010Z,44.80
2022-08-30T12:57:25.517Z,45.32
2022-08-30T13:00:02.344Z,43.48
2022-08-30T13:02:52.489Z,43.58
2022-08-30T13:05:50.479Z,44.16
2022-08-30T13:08:34.643Z,44.84
2022-08-30T13:11:14.007Z,45.28
2022-08-30T13:13:52.256Z,45.76
2022-08-30T13:16:36.698Z,46.26
2022-08-30T13:19:35.733Z,46.82
2022-08-30T13:22:27.973Z,47.40
2022-08-30T13:25:02.873Z,48.14
2022-08-30T13:27:40.619Z,48.52
2022-08-30T13:30:18.303Z,48.80
2022-08-30T13:32:52.605Z,48.98
2022-08-30T13:35:26.336Z,48.60
2022-08-30T13:38:03.412Z,45.70
2022-08-30T13:40:39.341Z,42.92
2022-08-30T13:43:14.790Z,40.50
2022-08-30T13:45:49.332Z,38.50
2022-08-30T13:48:25.024Z,36.96
2022-08-30T13:50:58.998Z,37.46
2022-08-30T13:56:27.971Z,41.40
2022-08-30T13:59:06.584Z,42.76
2022-08-30T14:33:17.815Z,47.52
2022-08-30T14:35:48.380Z,48.52
2022-08-30T14:38:19.033Z,48.28
2022-08-30T14:40:48.682Z,45.20
2022-08-30T14:43:18.592Z,42.70
2022-08-30T14:45:48.386Z,40.92
2022-08-30T14:48:18.809Z,39.52
2022-08-30T14:50:52.200Z,38.14
2022-08-30T14:53:21.918Z,36.84
2022-08-30T14:55:51.933Z,35.94
2022-08-30T14:58:34.054Z,37.92
2022-08-30T15:01:08.279Z,39.64
2022-08-30T15:03:40.609Z,40.78
2022-08-30T15:06:10.755Z,39.68
2022-08-30T15:08:41.119Z,38.62
2022-08-30T15:11:27.825Z,37.42
2022-08-30T15:14:00.166Z,38.44
2022-08-30T15:16:35.287Z,37.14
2022-08-30T15:19:09.826Z,35.80
2022-08-30T15:21:42.811Z,34.62
2022-08-30T15:24:16.114Z,33.74
2022-08-30T15:26:48.577Z,33.00
2022-08-30T15:29:21.362Z,34.48
2022-08-30T15:31:52.483Z,36.22
2022-08-30T15:34:28.062Z,37.36
2022-08-30T15:36:58.886Z,37.62
2022-08-30T15:39:29.207Z,36.22
2022-08-30T15:42:00.935Z,34.82
2022-08-30T15:44:32.565Z,33.64
2022-08-30T15:47:08.975Z,33.06
2022-08-30T15:49:38.705Z,33.10
2022-08-30T15:52:09.333Z,32.94
2022-08-30T15:54:39.183Z,32.00
2022-08-30T15:57:08.964Z,31.12
2022-08-30T15:59:38.860Z,30.60
2022-08-30T16:02:09.334Z,30.10
2022-08-30T16:04:39.411Z,29.60
2022-08-30T16:07:11.302Z,29.10
2022-08-30T16:09:41.039Z,29.08
2022-08-30T16:12:11.579Z,29.62
2022-08-30T16:14:43.442Z,29.56
2022-08-30T16:17:17.006Z,29.68
2022-08-30T16:20:12.081Z,29.50
2022-08-30T16:25:39.983Z,29.14
2022-08-30T16:28:23.303Z,29.40
2022-08-30T16:30:53.518Z,29.34
2022-08-30T16:33:26.762Z,29.20
2022-08-30T16:35:58.130Z,28.88
2022-08-30T16:38:30.066Z,28.40
2022-08-30T16:41:02.851Z,28.00
2022-08-30T16:43:36.705Z,27.60
2022-08-30T16:46:11.857Z,27.26
2022-08-30T16:48:44.324Z,26.90
2022-08-30T16:51:23.484Z,26.50
2022-08-30T16:53:58.029Z,26.20
2022-08-30T16:56:30.603Z,25.90
2022-08-30T16:59:03.182Z,25.60
2022-08-30T17:01:37.677Z,25.30
2022-08-30T17:04:08.775Z,25.00
2022-08-30T17:06:38.923Z,24.78
2022-08-30T17:09:10.522Z,24.50
2022-08-30T17:11:41.517Z,24.30
2022-08-30T17:14:11.286Z,24.16
2022-08-30T17:16:41.414Z,24.00
2022-08-30T17:19:11.935Z,23.80
2022-08-30T17:21:41.598Z,23.62
2022-08-30T17:24:11.258Z,23.50
2022-08-30T17:26:40.877Z,23.32
2022-08-30T17:29:10.862Z,23.20
2022-08-30T17:31:45.882Z,23.10
2022-08-30T17:34:21.954Z,22.92
2022-08-30T17:36:54.430Z,22.86
2022-08-30T17:39:25.618Z,22.70
2022-08-30T17:41:56.518Z,22.60
2022-08-30T17:44:28.691Z,22.40
2022-08-30T17:49:49.219Z,22.20
2022-08-30T17:52:19.010Z,22.18
2022-08-30T17:54:50.204Z,22.20
2022-08-30T17:57:42.978Z,22.20
2022-08-30T18:00:26.742Z,22.16
2022-08-30T18:03:04.669Z,22.10
2022-08-30T18:05:42.268Z,22.10
2022-08-30T18:08:26.245Z,22.00
2022-08-30T18:10:56.094Z,21.96
2022-08-30T18:13:26.190Z,21.90
2022-08-30T18:15:56.710Z,21.80
2022-08-30T18:18:26.760Z,21.80
2022-08-30T18:20:57.291Z,21.70
2022-08-30T18:23:27.291Z,21.60
2022-08-30T18:26:02.088Z,21.48
2022-08-30T18:28:32.867Z,21.30
2022-08-30T18:31:03.521Z,21.20
2022-08-30T18:33:34.235Z,21.10
2022-08-30T18:36:13.656Z,21.00
2022-08-30T18:38:43.762Z,20.90
2022-08-30T18:41:15.611Z,20.82
2022-08-30T18:43:45.860Z,20.70
2022-08-30T18:46:19.034Z,20.60
2022-08-30T18:48:49.807Z,20.50
2022-08-30T18:51:23.155Z,20.40
2022-08-30T18:53:54.911Z,20.30
2022-08-30T18:56:24.578Z,20.30
2022-08-30T18:58:59.348Z,20.26
2022-08-30T19:01:29.399Z,20.20
2022-08-30T19:03:59.275Z,20.20
2022-08-30T19:06:29.654Z,20.10
2022-08-30T19:08:59.818Z,20.00
2022-08-30T19:11:29.665Z,20.00
2022-08-30T19:13:59.562Z,19.90
2022-08-30T19:16:29.479Z,19.80
2022-08-30T19:19:00.479Z,19.80
2022-08-30T19:21:30.610Z,19.72
2022-08-30T19:24:02.185Z,19.70
2022-08-30T19:26:35.169Z,19.70
2022-08-30T19:29:17.299Z,19.70
2022-08-30T19:34:50.351Z,19.90
2022-08-30T19:37:20.667Z,19.76
2022-08-30T19:39:50.698Z,19.60
2022-08-30T19:42:23.346Z,19.50
2022-08-30T19:45:17.443Z,19.40
2022-08-30T19:51:00.792Z,19.50
2022-08-30T19:53:43.685Z,19.52
2022-08-30T19:57:15.293Z,19.54
2022-08-30T19:59:57.353Z,19.50
2022-08-30T20:02:29.987Z,19.50
2022-08-30T20:05:50.912Z,19.32
2022-08-30T20:08:25.636Z,19.30
2022-08-30T20:11:01.698Z,19.30
2022-08-30T20:13:35.659Z,19.30
2022-08-30T20:16:10.744Z,19.20
2022-08-30T20:18:51.649Z,19.14
2022-08-30T20:21:28.325Z,19.08
2022-08-30T20:24:09.669Z,18.98
2022-08-30T20:24:26.280Z,22.30
2022-08-30T20:26:45.789Z,18.80
2022-08-30T20:29:20.964Z,18.80
2022-08-30T20:31:54.640Z,18.72
2022-08-30T20:34:28.398Z,18.70
2022-08-30T20:37:03.810Z,18.70
2022-08-30T20:39:45.294Z,18.60
2022-08-30T20:42:20.950Z,18.50
2022-08-30T20:44:55.819Z,18.50
2022-08-30T20:47:30.346Z,18.40
2022-08-30T20:50:13.606Z,18.30
2022-08-30T20:52:48.438Z,18.30
2022-08-30T20:55:23.450Z,18.30
2022-08-30T20:57:57.554Z,18.30
2022-08-30T21:00:31.859Z,18.30
2022-08-30T21:03:06.706Z,18.32
2022-08-30T21:06:00.027Z,18.30
2022-08-30T21:08:36.780Z,18.30
2022-08-30T21:11:13.632Z,18.20
2022-08-30T21:13:48.579Z,18.22
2022-08-30T21:16:39.607Z,18.30
2022-08-30T21:19:16.194Z,18.30
2022-08-30T21:21:52.863Z,18.30
2022-08-30T21:24:29.061Z,18.32
2022-08-30T21:27:09.136Z,18.30
2022-08-30T21:29:49.223Z,18.30
2022-08-30T21:32:24.313Z,18.30
2022-08-30T21:35:18.166Z,18.30
2022-08-30T21:38:09.094Z,18.30
2022-08-30T21:40:49.564Z,18.40
2022-08-30T21:43:23.424Z,18.50
2022-08-30T21:45:57.219Z,18.50
2022-08-30T21:48:31.649Z,18.60
2022-08-30T21:51:12.383Z,18.54
2022-08-30T21:53:49.048Z,18.50
2022-08-30T21:56:24.908Z,18.48
2022-08-30T22:02:18.901Z,18.50
2022-08-30T22:04:57.615Z,18.50
2022-08-30T22:07:31.632Z,18.60
2022-08-30T22:10:05.939Z,18.60
2022-08-30T22:12:42.515Z,18.60
2022-08-30T22:15:24.514Z,18.60
2022-08-30T22:18:23.358Z,18.66
2022-08-30T22:20:58.729Z,18.76
2022-08-30T22:23:33.630Z,18.78
2022-08-30T22:26:09.016Z,18.70
2022-08-30T22:28:43.414Z,18.70
2022-08-30T22:31:21.365Z,18.70
2022-08-30T22:34:01.807Z,18.60
2022-08-30T22:36:39.050Z,18.70
2022-08-30T22:39:13.491Z,18.70
2022-08-30T22:41:49.034Z,18.70
2022-08-30T22:44:22.997Z,18.70
2022-08-30T22:46:56.718Z,18.70
2022-08-30T22:49:31.210Z,18.70
2022-08-30T22:52:05.456Z,18.62
2022-08-30T22:54:39.331Z,18.70
2022-08-30T22:57:15.863Z,18.70
2022-08-30T22:59:49.968Z,18.70
2022-08-30T23:02:24.552Z,18.80
2022-08-30T23:04:58.320Z,18.76
2022-08-30T23:07:32.591Z,18.70
2022-08-30T23:10:09.325Z,18.70
2022-08-30T23:12:43.600Z,18.70
2022-08-30T23:15:19.177Z,18.74
2022-08-30T23:17:54.935Z,18.80
2022-08-30T23:20:28.750Z,18.80
2022-08-30T23:23:01.648Z,18.80
2022-08-30T23:25:54.756Z,18.80
2022-08-30T23:28:44.444Z,18.80
2022-08-30T23:31:38.132Z,18.78
2022-08-30T23:34:29.727Z,18.70
2022-08-30T23:37:21.031Z,18.70
2022-08-30T23:40:12.216Z,18.70
2022-08-30T23:43:05.206Z,18.70
2022-08-30T23:45:56.717Z,18.70
2022-08-30T23:48:52.224Z,18.60
2022-08-30T23:51:44.265Z,18.60
2022-08-30T23:54:35.522Z,18.60
2022-08-30T23:57:27.931Z,18.70
